الصفحة الرئيسية
METAR-TAF:

METAR-TAF

مطار :

Pierre Regional Airport

بيير, داكوتا الجنوبية, الولايات المتحدة

دائرة عرض: 44-22-58N, خط طول: 100-17-09W, ارتفاع: 531 متر

مراقبة الطقس الحالي

تاريخ ووقت الإصدار 1ساعة و 0 دقيقة قبل الساعة 08:53UTC
ريح 3 عقدة من الشرق
درجة الحرارة -16°درجة مئوية
الرطوبة 92%
ضغط 1025 hPa
الرؤية: 16.1 كم
سماء صافية

METAR: KPIR 220853Z AUTO 09003KT 10SM CLR M16/M17 A3027 RMK AO2 SLP287 T11611172 56004

زمن: 03:53 (09:53 UTC)

توقعات

تاريخ ووقت الإصدار 4ساعات و 25 دقيقة قبل الساعة 05:28UTC
التوقعات صالحة من22 الساعة 06 UTC إلى 23 الساعة 06 UTC
ريح 3 عقدةمن اتجاهات متغيرة
الرؤية: 10 كم
ملبد بالغيوم على ارتفاع 7000 قدم
من 22 الساعة 1300 UTC
ريح 7 عقدة من الشرق
الرؤية: 1.6 كم
ملبد بالغيوم على ارتفاع 1500 قدم
ثلوج خفيفة
من 23 الساعة 0200 UTC
ريح 5 عقدة من الشمال الشرقي
الرؤية: 3.2 كم
ملبد بالغيوم على ارتفاع 700 قدم
ثلوج خفيفة

TAF: KPIR 220528Z 2206/2306 VRB03KT P6SM OVC070 FM221300 08007KT 1SM -SN OVC015 FM230200 05005KT 2SM -SN OVC007

أرصاد الطقس والتوقعات من أكثر من 4000 مطار (تقارير الطقس للمطار METAR والتنبؤ بالطقس بالمطارTAF).

المحطات المتاحة هي النقط الصفراء والحمراء على الخريطة.

حرك المؤشر فوق النقطة لمعرفة اسم المحطة.

ثم انقر لمعرفة أرصاد وتوقعات الطقس.

لتغيير الخارطة: اضغط على الأزرار الخضراء مع رمز الصليب الأسود للتكبير. على الزر الأخضر مع شرطة للتصغير، أو على الأسهم الخضراء للخرائط المجاورة.


METAR-TAF: